Time;durP1;ratioP1;P1;durP2;ratioP2;P2;SDS_P1;SDS_P2;PMS_P1;PMS_P2;Temp;Humidity;BMP_temperature;BMP_pressure;BME280_temperature;BME280_humidity;BME280_pressure;Samples;Min_cycle;Max_cycle;Signal;HPM_P1;HPM_P2
2023/10/19 00:00:50;;;;;;;1256.93;999.90;;;10.80;99.90;;;;;;4996508;28;20496;-77
2023/10/19 00:03:16;;;;;;;1267.00;999.90;;;10.80;99.90;;;;;;4996334;28;20464;-77
2023/10/19 00:05:44;;;;;;;1259.07;999.90;;;10.80;99.90;;;;;;5011176;28;20565;-77
2023/10/19 00:08:16;;;;;;;1273.47;999.90;;;10.80;99.90;;;;;;5015562;28;20951;-77
2023/10/19 00:10:44;;;;;;;1266.37;999.90;;;10.90;99.90;;;;;;5015931;28;20456;-77
2023/10/19 00:13:12;;;;;;;1264.40;999.90;;;10.90;99.90;;;;;;5015704;28;20462;-76
2023/10/19 00:15:40;;;;;;;1260.70;999.90;;;10.90;99.90;;;;;;5015603;28;20451;-77
2023/10/19 00:18:20;;;;;;;1277.20;999.90;;;11.00;99.90;;;;;;5015331;28;20465;-77
2023/10/19 00:20:54;;;;;;;1270.47;999.90;;;11.00;99.90;;;;;;5015845;28;20461;-77
2023/10/19 00:23:28;;;;;;;1254.53;999.90;;;11.00;99.90;;;;;;5015498;28;20511;-77
2023/10/19 00:25:56;;;;;;;1254.43;999.90;;;11.00;99.90;;;;;;4995994;28;20481;-77
2023/10/19 00:28:25;;;;;;;1254.67;999.90;;;11.00;99.90;;;;;;5000322;28;21030;-77
2023/10/19 00:30:53;;;;;;;1237.97;999.90;;;11.00;99.90;;;;;;5014982;28;20462;-77
2023/10/19 00:33:21;;;;;;;1243.33;999.90;;;11.00;99.90;;;;;;5015464;28;20490;-77
2023/10/19 00:35:56;;;;;;;1260.47;999.90;;;11.10;99.90;;;;;;5015527;28;20456;-76
2023/10/19 00:38:40;;;;;;;1262.43;999.90;;;11.10;99.90;;;;;;5015299;28;20455;-77
2023/10/19 00:41:13;;;;;;;1251.77;999.90;;;11.10;99.90;;;;;;5015078;28;20451;-77
2023/10/19 00:43:44;;;;;;;1265.80;999.90;;;11.10;99.90;;;;;;5015114;28;20727;-76
2023/10/19 00:46:20;;;;;;;1261.00;999.90;;;11.20;99.90;;;;;;5015140;28;20559;-77
2023/10/19 00:48:53;;;;;;;1250.40;999.90;;;11.20;99.90;;;;;;5014679;28;20585;-76
2023/10/19 00:51:40;;;;;;;1258.30;998.37;;;11.20;99.90;;;;;;5014712;28;20456;-76
2023/10/19 00:54:12;;;;;;;1269.23;999.90;;;11.30;99.90;;;;;;5015084;28;20463;-76
2023/10/19 00:56:44;;;;;;;1275.57;984.47;;;11.20;99.90;;;;;;5015042;28;20941;-76
2023/10/19 00:59:14;;;;;;;1280.47;978.37;;;11.30;99.90;;;;;;5014122;28;21004;-76
2023/10/19 01:01:47;;;;;;;1283.20;981.60;;;11.30;99.90;;;;;;5014620;28;20945;-77
2023/10/19 01:04:15;;;;;;;1270.57;977.60;;;11.30;99.90;;;;;;5014470;28;20474;-76
2023/10/19 01:06:43;;;;;;;1262.13;951.33;;;11.30;99.90;;;;;;5014793;28;20480;-76
2023/10/19 01:09:14;;;;;;;1242.80;941.20;;;11.30;99.90;;;;;;5014666;28;20660;-76
2023/10/19 01:11:45;;;;;;;1243.47;926.70;;;11.30;99.90;;;;;;5014431;28;20861;-75
2023/10/19 01:14:23;;;;;;;1250.70;927.13;;;11.20;99.90;;;;;;5014634;28;20453;-76
2023/10/19 01:16:51;;;;;;;1244.23;929.13;;;11.20;99.90;;;;;;5014403;28;20473;-76
2023/10/19 01:19:20;;;;;;;1239.23;929.33;;;11.20;99.90;;;;;;5014492;28;20453;-75
2023/10/19 01:21:51;;;;;;;1226.30;921.20;;;11.10;99.90;;;;;;5014251;28;20928;-76
2023/10/19 01:24:27;;;;;;;1232.90;927.97;;;11.10;99.90;;;;;;5014361;28;20453;-75
2023/10/19 01:26:56;;;;;;;1245.53;922.80;;;11.00;99.90;;;;;;5013963;28;20506;-76
2023/10/19 01:29:27;;;;;;;1244.43;922.97;;;10.90;99.90;;;;;;5014545;28;21228;-76
2023/10/19 01:32:04;;;;;;;1254.47;929.23;;;10.90;99.90;;;;;;5014259;28;20456;-76
2023/10/19 01:34:33;;;;;;;1281.00;951.60;;;10.90;99.90;;;;;;4999917;28;20535;-76
2023/10/19 01:37:03;;;;;;;1264.13;942.27;;;11.00;99.90;;;;;;5014592;28;20449;-75
2023/10/19 01:39:30;;;;;;;1304.13;962.70;;;11.00;99.90;;;;;;5013823;28;20876;-75
2023/10/19 01:41:59;;;;;;;1306.67;968.87;;;11.10;99.90;;;;;;5013741;28;20472;-76
2023/10/19 01:44:25;;;;;;;1294.97;961.53;;;11.10;99.90;;;;;;5013419;28;20460;-75
2023/10/19 01:46:52;;;;;;;1317.20;971.93;;;11.20;99.90;;;;;;5013396;28;20475;-75
2023/10/19 01:49:26;;;;;;;1321.23;976.30;;;11.30;99.90;;;;;;5006149;28;20459;-75
2023/10/19 01:51:53;;;;;;;1322.03;963.77;;;11.30;99.90;;;;;;4994488;28;20485;-75
2023/10/19 01:54:23;;;;;;;1329.67;975.77;;;11.40;99.90;;;;;;5009626;28;20484;-76
2023/10/19 01:56:54;;;;;;;1325.07;972.43;;;11.40;99.90;;;;;;5013912;28;20448;-75
2023/10/19 01:59:20;;;;;;;1322.13;961.73;;;11.40;99.90;;;;;;5013918;28;20495;-75
2023/10/19 02:01:49;;;;;;;1306.57;947.77;;;11.50;99.90;;;;;;5013791;28;20464;-75
2023/10/19 02:04:16;;;;;;;1317.87;965.03;;;11.50;99.90;;;;;;5013605;28;20453;-75
2023/10/19 02:06:46;;;;;;;1315.97;964.47;;;11.50;99.90;;;;;;4996665;28;20474;-75
2023/10/19 02:09:21;;;;;;;1334.37;977.10;;;11.60;99.90;;;;;;4994317;28;20854;-75
2023/10/19 02:11:48;;;;;;;1314.97;952.57;;;11.60;99.90;;;;;;4994062;28;20449;-75
2023/10/19 02:14:18;;;;;;;1329.87;974.77;;;11.60;99.90;;;;;;4993907;28;20460;-75
2023/10/19 02:16:47;;;;;;;1350.97;987.70;;;11.60;99.90;;;;;;4993914;28;20446;-75
2023/10/19 02:19:13;;;;;;;1323.63;955.57;;;11.70;99.90;;;;;;4995167;28;20451;-75
2023/10/19 02:21:40;;;;;;;1316.33;941.43;;;11.70;99.90;;;;;;5013085;28;20508;-75
2023/10/19 02:24:07;;;;;;;1317.93;958.97;;;11.60;99.90;;;;;;5013266;28;20472;-75
2023/10/19 02:26:35;;;;;;;1289.57;931.47;;;11.60;99.90;;;;;;5012947;28;20483;-75
2023/10/19 02:29:07;;;;;;;1290.53;939.67;;;11.60;99.90;;;;;;5012861;28;20462;-75
2023/10/19 02:31:37;;;;;;;1295.13;933.57;;;11.60;99.90;;;;;;5012937;28;20449;-75
2023/10/19 02:34:04;;;;;;;1279.37;928.40;;;11.60;99.90;;;;;;5012478;28;20448;-75
2023/10/19 02:36:32;;;;;;;1276.13;931.10;;;11.60;99.90;;;;;;5013049;28;20449;-75
2023/10/19 02:38:59;;;;;;;1287.87;937.10;;;11.60;99.90;;;;;;5013021;28;20485;-74
2023/10/19 02:41:27;;;;;;;1271.30;920.27;;;11.70;99.90;;;;;;5012693;28;20456;-75
2023/10/19 02:44:01;;;;;;;1254.53;902.03;;;11.70;99.90;;;;;;5013053;28;20510;-74
2023/10/19 02:46:28;;;;;;;1254.23;894.93;;;11.80;99.90;;;;;;5012602;28;20468;-75
2023/10/19 02:48:57;;;;;;;1257.73;902.47;;;11.70;99.90;;;;;;5012923;28;20523;-74
2023/10/19 02:51:24;;;;;;;1258.93;892.60;;;11.80;99.90;;;;;;5012497;28;20599;-74
2023/10/19 02:53:50;;;;;;;1259.37;893.80;;;11.80;99.90;;;;;;5012722;28;20465;-74
2023/10/19 02:56:18;;;;;;;1258.17;892.87;;;11.80;99.90;;;;;;5012768;28;20460;-75
2023/10/19 02:58:48;;;;;;;1266.17;893.50;;;11.80;99.90;;;;;;5013116;28;20541;-75
2023/10/19 03:01:21;;;;;;;1257.43;876.07;;;11.80;99.90;;;;;;5012649;28;20450;-75
2023/10/19 03:03:49;;;;;;;1255.53;889.10;;;11.80;99.90;;;;;;5012706;28;20459;-74
2023/10/19 03:06:20;;;;;;;1257.53;881.50;;;11.80;99.90;;;;;;5012495;28;20483;-74
2023/10/19 03:08:46;;;;;;;1259.37;882.40;;;11.80;99.90;;;;;;5012688;28;20869;-74
2023/10/19 03:11:13;;;;;;;1266.47;915.27;;;11.80;99.90;;;;;;5012136;28;20449;-74
2023/10/19 03:13:40;;;;;;;1265.13;906.33;;;11.80;99.90;;;;;;5012171;28;20453;-74
2023/10/19 03:16:09;;;;;;;1271.23;906.87;;;11.80;99.90;;;;;;5012600;28;20545;-74
2023/10/19 03:18:35;;;;;;;1251.43;885.07;;;11.80;99.90;;;;;;5012285;28;20889;-74
2023/10/19 03:21:02;;;;;;;1260.03;881.87;;;11.80;99.90;;;;;;5012388;28;20503;-74
2023/10/19 03:23:34;;;;;;;1270.77;901.93;;;11.80;99.90;;;;;;5011839;28;20452;-74
2023/10/19 03:26:22;;;;;;;1272.03;898.47;;;11.80;99.90;;;;;;5012098;28;20453;-74
2023/10/19 03:28:54;;;;;;;1264.67;889.77;;;11.80;99.90;;;;;;5012484;28;20453;-74
2023/10/19 03:31:23;;;;;;;1263.17;881.87;;;11.80;99.90;;;;;;5012307;28;20832;-74
2023/10/19 03:33:53;;;;;;;1267.63;885.77;;;11.90;99.90;;;;;;5012319;28;20447;-74
2023/10/19 03:36:21;;;;;;;1284.60;901.77;;;11.90;99.90;;;;;;5012223;28;20522;-74
2023/10/19 03:38:51;;;;;;;1252.70;870.37;;;11.90;99.90;;;;;;5012305;28;20664;-74
2023/10/19 03:41:21;;;;;;;1265.43;883.27;;;11.90;99.90;;;;;;5012083;28;20447;-74
2023/10/19 03:43:51;;;;;;;1260.73;876.50;;;11.90;99.90;;;;;;5012327;28;20536;-74
2023/10/19 03:46:28;;;;;;;1258.87;878.10;;;11.90;99.90;;;;;;5012245;28;20441;-74
2023/10/19 03:48:58;;;;;;;1244.67;877.27;;;11.90;99.90;;;;;;5011794;28;20453;-74
2023/10/19 03:51:26;;;;;;;1261.03;889.00;;;11.90;99.90;;;;;;5012402;28;20450;-74
2023/10/19 03:54:01;;;;;;;1248.53;874.57;;;12.00;99.90;;;;;;5002838;28;20448;-74
2023/10/19 03:56:32;;;;;;;1246.67;872.50;;;12.00;99.90;;;;;;4992819;28;20446;-74
2023/10/19 03:59:00;;;;;;;1253.30;870.73;;;12.00;99.90;;;;;;4992664;28;20447;-74
2023/10/19 04:01:27;;;;;;;1255.43;882.60;;;11.90;99.90;;;;;;4992490;28;20446;-74
2023/10/19 04:03:55;;;;;;;1238.57;880.27;;;11.90;99.90;;;;;;4992691;28;20549;-74
2023/10/19 04:06:22;;;;;;;1223.63;867.60;;;11.80;99.90;;;;;;5004125;28;20444;-74
2023/10/19 04:08:50;;;;;;;1216.47;851.17;;;11.70;99.90;;;;;;5012111;28;20445;-74
2023/10/19 04:11:32;;;;;;;1221.57;848.07;;;11.70;99.90;;;;;;5012114;28;20454;-74
2023/10/19 04:14:03;;;;;;;1230.97;873.17;;;11.70;99.90;;;;;;5011928;28;20468;-74
2023/10/19 04:16:31;;;;;;;1245.80;882.43;;;11.70;99.90;;;;;;5012294;28;20442;-74
2023/10/19 04:18:58;;;;;;;1231.17;836.23;;;11.70;99.90;;;;;;5012039;28;20446;-74
2023/10/19 04:21:25;;;;;;;1248.23;853.47;;;11.70;99.90;;;;;;5011957;28;20940;-74
2023/10/19 04:23:52;;;;;;;1226.20;852.07;;;11.80;99.90;;;;;;5011995;28;20540;-74
2023/10/19 04:26:20;;;;;;;1240.33;865.37;;;11.80;99.90;;;;;;5011822;28;20524;-74
2023/10/19 04:28:50;;;;;;;1250.47;867.03;;;11.90;99.90;;;;;;5011658;28;20533;-74
2023/10/19 04:31:18;;;;;;;1237.00;852.37;;;11.90;99.90;;;;;;5011692;28;20456;-74
2023/10/19 04:33:47;;;;;;;1256.27;848.60;;;12.00;99.90;;;;;;5011532;28;20452;-74
2023/10/19 04:36:21;;;;;;;1234.73;840.27;;;12.00;99.90;;;;;;5014578;28;20456;-74
2023/10/19 04:38:48;;;;;;;1241.67;866.47;;;12.00;99.90;;;;;;5015305;28;20454;-74
2023/10/19 04:41:15;;;;;;;1240.50;859.23;;;12.00;99.90;;;;;;5015230;28;20574;-74
2023/10/19 04:43:49;;;;;;;1255.33;866.77;;;11.90;99.90;;;;;;5014892;28;20537;-74
2023/10/19 04:46:18;;;;;;;1277.03;899.20;;;11.90;99.90;;;;;;5015073;28;20452;-73
2023/10/19 04:48:45;;;;;;;1227.13;856.60;;;11.90;99.90;;;;;;5014223;28;20819;-74
2023/10/19 04:51:12;;;;;;;1262.63;869.50;;;11.90;99.90;;;;;;5014426;28;20539;-74
2023/10/19 04:53:39;;;;;;;1218.13;854.23;;;12.00;99.90;;;;;;5014643;28;20557;-75
2023/10/19 04:56:09;;;;;;;1233.87;861.20;;;12.00;99.90;;;;;;5014739;28;20445;-74
2023/10/19 04:58:36;;;;;;;1201.43;849.33;;;12.00;99.90;;;;;;5014964;28;20442;-75
2023/10/19 05:01:05;;;;;;;1195.37;855.07;;;12.00;99.90;;;;;;5014854;28;20452;-75
2023/10/19 05:03:32;;;;;;;1215.77;853.10;;;12.00;99.90;;;;;;5014725;28;20482;-75
2023/10/19 05:05:59;;;;;;;1217.17;852.33;;;12.10;99.90;;;;;;5014601;28;20854;-75
2023/10/19 05:08:27;;;;;;;1208.97;842.67;;;12.10;99.90;;;;;;5014503;28;20520;-75
2023/10/19 05:10:55;;;;;;;1224.10;878.27;;;12.10;99.90;;;;;;5014871;28;20511;-74
2023/10/19 05:13:23;;;;;;;1231.47;886.30;;;12.10;99.90;;;;;;5014745;28;20450;-74
2023/10/19 05:15:50;;;;;;;1219.43;855.37;;;12.20;99.90;;;;;;5014536;28;20886;-74
2023/10/19 05:18:18;;;;;;;1220.17;848.00;;;12.20;99.90;;;;;;5014402;28;20485;-73
2023/10/19 05:20:45;;;;;;;1206.47;809.27;;;12.20;99.90;;;;;;5014664;28;20488;-73
2023/10/19 05:23:13;;;;;;;1218.77;832.40;;;12.20;99.90;;;;;;5014409;28;20488;-73
2023/10/19 05:25:40;;;;;;;1212.87;831.67;;;12.20;99.90;;;;;;5014397;28;20456;-74
2023/10/19 05:28:08;;;;;;;1209.33;836.87;;;12.30;99.90;;;;;;5014266;28;21040;-73
2023/10/19 05:30:36;;;;;;;1208.43;849.03;;;12.30;99.90;;;;;;5014425;28;20826;-74
2023/10/19 05:33:03;;;;;;;1230.10;864.13;;;12.30;99.90;;;;;;5014034;28;20450;-74
2023/10/19 05:35:34;;;;;;;1215.27;860.73;;;12.30;99.90;;;;;;5014079;28;20460;-73
2023/10/19 05:38:02;;;;;;;1198.73;822.87;;;12.30;99.90;;;;;;5014412;28;20454;-73
2023/10/19 05:40:30;;;;;;;1200.93;852.77;;;12.30;99.90;;;;;;5014079;28;20452;-73
2023/10/19 05:43:00;;;;;;;1177.67;836.33;;;12.30;99.90;;;;;;5014012;28;20951;-74
2023/10/19 05:45:28;;;;;;;1178.27;835.37;;;12.30;99.90;;;;;;5012496;28;20969;-74
2023/10/19 05:47:56;;;;;;;1168.67;834.43;;;12.30;99.90;;;;;;5010639;28;20497;-74
2023/10/19 05:50:23;;;;;;;1155.03;827.07;;;12.30;99.90;;;;;;5014207;28;20519;-74
2023/10/19 05:52:51;;;;;;;1138.67;825.10;;;12.30;99.90;;;;;;5012718;28;20551;-73
2023/10/19 05:55:21;;;;;;;1172.83;835.57;;;12.20;99.90;;;;;;4998761;28;20462;-73
2023/10/19 05:57:49;;;;;;;1185.30;846.43;;;12.20;99.90;;;;;;4994473;28;20506;-73
2023/10/19 06:00:17;;;;;;;1162.97;834.73;;;12.30;99.90;;;;;;5004053;28;20450;-74
2023/10/19 06:02:45;;;;;;;1158.57;842.40;;;12.30;99.90;;;;;;5014094;28;20597;-73
2023/10/19 06:05:15;;;;;;;1185.53;845.87;;;12.20;99.90;;;;;;5013749;28;20458;-73
2023/10/19 06:07:42;;;;;;;1172.37;847.60;;;12.30;99.90;;;;;;5013549;28;21007;-74
2023/10/19 06:10:15;;;;;;;1159.07;847.73;;;12.30;99.90;;;;;;5013739;28;20468;-73
2023/10/19 06:12:42;;;;;;;1176.27;853.03;;;12.30;99.90;;;;;;5013246;28;20453;-74
2023/10/19 06:15:11;;;;;;;1179.70;870.83;;;12.30;99.90;;;;;;5013693;28;20457;-73
2023/10/19 06:17:39;;;;;;;1142.17;865.40;;;12.30;99.90;;;;;;5013430;28;20451;-74
2023/10/19 06:20:08;;;;;;;1145.10;857.60;;;12.30;99.90;;;;;;5013402;28;20451;-73
2023/10/19 06:22:36;;;;;;;1136.10;858.77;;;12.30;99.90;;;;;;5013446;28;20537;-74
2023/10/19 06:25:04;;;;;;;1121.20;829.07;;;12.30;99.90;;;;;;5013103;28;20458;-74
2023/10/19 06:27:32;;;;;;;1123.37;834.63;;;12.30;99.90;;;;;;5012874;28;20479;-73
2023/10/19 06:29:59;;;;;;;1129.43;827.73;;;12.30;99.90;;;;;;5013383;28;20544;-73
2023/10/19 06:32:26;;;;;;;1128.13;825.70;;;12.30;99.90;;;;;;5013108;28;20460;-73
2023/10/19 06:34:54;;;;;;;1135.37;819.73;;;12.30;99.90;;;;;;5013337;28;20539;-74
2023/10/19 06:37:21;;;;;;;1135.13;853.17;;;12.20;99.90;;;;;;5013186;28;20865;-73
2023/10/19 06:39:50;;;;;;;1134.30;833.97;;;12.20;99.90;;;;;;5012960;28;20493;-74
2023/10/19 06:42:17;;;;;;;1124.33;816.40;;;12.20;99.90;;;;;;5013112;28;20461;-74
2023/10/19 06:44:45;;;;;;;1119.83;818.47;;;12.20;99.90;;;;;;5012541;28;20461;-73
2023/10/19 06:47:13;;;;;;;1116.27;821.10;;;12.20;99.90;;;;;;5013016;28;20454;-73
2023/10/19 06:49:41;;;;;;;1175.63;844.35;;;12.30;99.90;;;;;;5012538;28;20454;-75
2023/10/19 06:52:11;;;;;;;1117.23;826.50;;;12.30;99.90;;;;;;5012675;28;20332;-74
2023/10/19 06:54:39;;;;;;;1113.83;825.07;;;12.40;99.90;;;;;;5012856;28;20450;-74
2023/10/19 06:57:07;;;;;;;1142.27;853.53;;;12.40;99.90;;;;;;5012498;28;20447;-74
2023/10/19 06:59:35;;;;;;;1141.63;833.67;;;12.50;99.90;;;;;;5012991;28;20455;-74
2023/10/19 07:02:03;;;;;;;1132.73;826.27;;;12.50;99.90;;;;;;5012958;28;20493;-75
2023/10/19 07:04:31;;;;;;;1114.50;823.57;;;12.60;99.90;;;;;;5012830;28;20549;-75
2023/10/19 07:06:58;;;;;;;1113.03;823.43;;;12.60;99.90;;;;;;5012827;28;20462;-74
2023/10/19 07:09:25;;;;;;;1097.43;826.73;;;12.60;99.90;;;;;;5012929;28;20473;-76
2023/10/19 07:11:54;;;;;;;1100.30;833.00;;;12.70;99.90;;;;;;5012997;28;20536;-77
2023/10/19 07:14:23;;;;;;;1106.73;825.53;;;12.70;99.90;;;;;;5009432;28;20490;-76
2023/10/19 07:16:51;;;;;;;1117.23;823.13;;;12.70;99.90;;;;;;5006652;28;20825;-76
2023/10/19 07:19:20;;;;;;;1110.70;808.93;;;12.80;99.90;;;;;;5003295;28;20449;-77
2023/10/19 07:21:53;;;;;;;1104.07;802.40;;;12.90;99.90;;;;;;5012344;28;20832;-77
2023/10/19 07:24:23;;;;;;;1098.00;805.00;;;12.90;99.90;;;;;;5012173;28;20543;-77
2023/10/19 07:27:03;;;;;;;1107.93;816.40;;;13.00;99.90;;;;;;5012958;28;20458;-77
2023/10/19 07:29:31;;;;;;;1098.40;814.00;;;13.10;99.90;;;;;;5012553;28;20501;-77
2023/10/19 07:31:58;;;;;;;1081.03;806.67;;;13.20;99.90;;;;;;5012432;28;20456;-77
2023/10/19 07:34:29;;;;;;;1062.67;820.47;;;13.20;99.90;;;;;;5012028;28;20542;-76
2023/10/19 07:36:58;;;;;;;1066.87;815.73;;;13.30;99.90;;;;;;5012768;28;20459;-77
2023/10/19 07:39:26;;;;;;;1056.33;815.47;;;13.30;99.90;;;;;;5012568;28;20647;-77
2023/10/19 07:41:53;;;;;;;1057.00;829.77;;;13.40;99.90;;;;;;5012455;28;20495;-78
2023/10/19 07:44:20;;;;;;;1032.47;821.40;;;13.50;99.90;;;;;;5011866;28;20451;-77
2023/10/19 07:46:47;;;;;;;1023.53;811.17;;;13.60;99.90;;;;;;5012352;28;20959;-77
2023/10/19 07:49:14;;;;;;;999.40;805.47;;;13.70;99.90;;;;;;5012215;28;20484;-77
2023/10/19 07:51:46;;;;;;;998.40;816.27;;;13.80;99.90;;;;;;5011957;28;20453;-77
2023/10/19 07:54:13;;;;;;;968.40;812.53;;;13.80;99.90;;;;;;5012192;28;21011;-77
2023/10/19 07:56:41;;;;;;;928.30;800.23;;;13.80;99.90;;;;;;5012419;28;20968;-77
2023/10/19 07:59:08;;;;;;;934.50;808.00;;;13.80;99.90;;;;;;5012781;28;20453;-77
2023/10/19 08:01:36;;;;;;;940.03;812.03;;;13.90;99.90;;;;;;5012685;28;20510;-77
2023/10/19 08:04:03;;;;;;;948.50;810.90;;;14.00;99.90;;;;;;5012434;28;20523;-78
2023/10/19 08:06:31;;;;;;;945.43;801.47;;;14.20;99.90;;;;;;5012580;28;20515;-77
2023/10/19 08:08:59;;;;;;;918.27;813.60;;;14.30;99.90;;;;;;5013599;28;20547;-77
2023/10/19 08:11:26;;;;;;;908.37;809.47;;;14.30;99.90;;;;;;5016063;28;20452;-78
2023/10/19 08:13:55;;;;;;;899.37;802.77;;;14.30;99.90;;;;;;5015931;28;20464;-78
2023/10/19 08:16:22;;;;;;;899.73;804.27;;;14.40;99.90;;;;;;5015785;28;20952;-77
2023/10/19 08:18:49;;;;;;;902.90;809.40;;;14.60;99.90;;;;;;5015772;28;20531;-77
2023/10/19 08:21:17;;;;;;;897.97;806.47;;;14.60;99.90;;;;;;5015250;28;20484;-77
2023/10/19 08:23:45;;;;;;;901.37;811.20;;;14.80;99.90;;;;;;5015549;28;20957;-78
2023/10/19 08:26:14;;;;;;;899.93;811.03;;;14.90;99.90;;;;;;5015204;28;20933;-77
2023/10/19 08:28:41;;;;;;;908.90;822.93;;;15.20;99.90;;;;;;5015539;28;20477;-78
2023/10/19 08:31:10;;;;;;;915.00;832.10;;;15.30;99.90;;;;;;5015837;28;20452;-78
2023/10/19 08:33:38;;;;;;;928.73;848.83;;;15.50;99.90;;;;;;5015344;28;20448;-78
2023/10/19 08:36:06;;;;;;;920.17;845.57;;;15.70;99.90;;;;;;5015720;28;20932;-78
2023/10/19 08:38:33;;;;;;;921.28;852.05;;;15.70;99.90;;;;;;5014308;28;20531;-77
2023/10/19 08:41:17;;;;;;;953.90;879.60;;;15.60;99.90;;;;;;5015377;28;20815;-71
2023/10/19 08:43:48;;;;;;;914.60;848.87;;;15.60;99.90;;;;;;5016334;28;20202;-71
2023/10/19 08:46:15;;;;;;;922.50;857.13;;;15.60;99.90;;;;;;5016425;28;20533;-71
2023/10/19 08:48:43;;;;;;;922.20;853.23;;;15.60;99.90;;;;;;5016604;28;20477;-71
2023/10/19 08:51:11;;;;;;;929.20;861.40;;;16.00;99.90;;;;;;5016328;28;20459;-71
2023/10/19 08:53:40;;;;;;;917.00;853.47;;;16.40;99.90;;;;;;5014905;28;20488;-71
2023/10/19 08:56:08;;;;;;;899.43;842.13;;;16.70;99.90;;;;;;5015071;28;20449;-72
2023/10/19 08:58:35;;;;;;;881.37;829.03;;;17.10;99.90;;;;;;5014930;28;20472;-71
2023/10/19 09:01:09;;;;;;;794.63;754.30;;;17.60;99.90;;;;;;5015005;28;20452;-72
2023/10/19 09:03:36;;;;;;;543.73;521.90;;;17.80;99.90;;;;;;5014743;28;20449;-71
2023/10/19 09:06:05;;;;;;;351.00;338.70;;;17.70;99.90;;;;;;5014657;28;20552;-71
2023/10/19 09:08:39;;;;;;;185.30;178.50;;;17.80;99.90;;;;;;5014709;28;20487;-71
2023/10/19 09:11:11;;;;;;;189.50;182.67;;;18.00;99.90;;;;;;5014700;28;20551;-71
2023/10/19 09:13:46;;;;;;;75.40;72.13;;;18.40;99.90;;;;;;5014608;28;20488;-72
2023/10/19 09:16:15;;;;;;;12.97;11.50;;;18.70;99.90;;;;;;5014772;28;20468;-72
2023/10/19 09:18:42;;;;;;;11.10;10.00;;;18.90;99.90;;;;;;5014735;28;20476;-72
2023/10/19 09:21:12;;;;;;;11.67;8.10;;;19.30;99.90;;;;;;5014111;28;20487;-71
2023/10/19 09:23:41;;;;;;;10.97;7.90;;;19.20;99.90;;;;;;5014483;28;20449;-72
2023/10/19 09:26:08;;;;;;;11.33;6.97;;;19.10;99.90;;;;;;5014271;28;20457;-71
2023/10/19 09:28:37;;;;;;;11.67;6.53;;;18.90;99.90;;;;;;5014216;28;20473;-71
2023/10/19 09:31:05;;;;;;;13.10;6.77;;;18.80;99.90;;;;;;5014562;28;20531;-71
2023/10/19 09:33:34;;;;;;;11.77;5.90;;;18.90;99.90;;;;;;5014378;28;20508;-71
2023/10/19 09:36:04;;;;;;;9.53;6.73;;;18.90;99.90;;;;;;5014253;28;20957;-71
2023/10/19 09:38:32;;;;;;;15.10;7.60;;;19.10;99.90;;;;;;5014377;28;20467;-72
2023/10/19 09:41:00;;;;;;;12.33;6.77;;;19.60;99.90;;;;;;5014310;28;20519;-72
2023/10/19 09:43:34;;;;;;;10.27;5.60;;;20.10;99.90;;;;;;5014153;28;20449;-72
2023/10/19 09:46:05;;;;;;;12.97;5.63;;;20.70;95.40;;;;;;5013967;28;20511;-72
2023/10/19 09:48:37;;;;;;;9.73;4.10;;;21.10;90.90;;;;;;5014021;28;20998;-72
2023/10/19 09:51:05;;;;;;;14.53;4.70;;;21.30;87.30;;;;;;5014033;28;20536;-72
2023/10/19 09:53:33;;;;;;;14.90;4.20;;;21.90;87.80;;;;;;5013623;28;20465;-72
2023/10/19 09:56:00;;;;;;;8.80;3.40;;;22.30;78.70;;;;;;5013707;28;20459;-72
2023/10/19 09:58:31;;;;;;;7.67;3.10;;;22.50;72.40;;;;;;5014242;28;20607;-71
2023/10/19 10:00:58;;;;;;;9.37;3.20;;;21.90;71.80;;;;;;5013885;28;20516;-72
2023/10/19 10:03:46;;;;;;;9.77;4.00;;;21.30;75.40;;;;;;5013850;28;20453;-72
2023/10/19 10:06:14;;;;;;;11.70;3.33;;;20.90;79.00;;;;;;5013762;28;20539;-72
2023/10/19 10:08:43;;;;;;;11.60;4.00;;;20.60;81.90;;;;;;5013335;28;20472;-72
2023/10/19 10:11:18;;;;;;;10.43;5.45;;;20.50;86.10;;;;;;5011681;28;20477;-71
2023/10/19 10:13:50;;;;;;;15.77;6.00;;;20.40;86.40;;;;;;5006083;28;20459;-71
2023/10/19 10:16:18;;;;;;;9.67;3.43;;;20.40;86.40;;;;;;5013906;28;20206;-72
2023/10/19 10:18:50;;;;;;;9.87;3.60;;;20.30;84.40;;;;;;5014318;28;20449;-72
2023/10/19 10:21:20;;;;;;;14.20;4.63;;;20.30;86.10;;;;;;5002660;28;20450;-72
2023/10/19 10:23:49;;;;;;;12.57;4.50;;;20.30;86.30;;;;;;5003648;28;20926;-72
2023/10/19 10:26:18;;;;;;;11.57;4.07;;;20.50;86.50;;;;;;5013475;28;20294;-72
2023/10/19 10:28:49;;;;;;;11.03;3.63;;;20.80;82.00;;;;;;5013304;28;20514;-72
2023/10/19 10:31:20;;;;;;;10.80;3.67;;;20.80;86.30;;;;;;5013428;28;20461;-72
2023/10/19 10:33:51;;;;;;;7.33;3.50;;;20.90;82.20;;;;;;5012729;28;20511;-72
2023/10/19 10:36:19;;;;;;;9.70;3.40;;;20.80;82.60;;;;;;5013278;28;20479;-72
2023/10/19 10:38:47;;;;;;;9.27;3.53;;;20.60;83.10;;;;;;5013203;28;20449;-72
2023/10/19 10:41:21;;;;;;;10.33;3.60;;;20.40;78.60;;;;;;5012887;28;20493;-72
2023/10/19 10:43:53;;;;;;;15.77;4.50;;;20.50;84.20;;;;;;5014159;28;20524;-72
2023/10/19 10:46:21;;;;;;;10.00;4.07;;;20.40;78.70;;;;;;5014441;28;20456;-71
2023/10/19 10:48:50;;;;;;;17.50;4.90;;;20.50;84.90;;;;;;5014423;28;20477;-71
2023/10/19 10:51:22;;;;;;;17.43;3.63;;;20.70;82.70;;;;;;5014448;28;20449;-71
2023/10/19 10:53:50;;;;;;;10.87;4.00;;;20.50;78.60;;;;;;5013051;28;20461;-71
2023/10/19 10:56:18;;;;;;;10.77;3.87;;;20.50;78.60;;;;;;5012783;28;20453;-71
2023/10/19 10:58:45;;;;;;;15.67;4.00;;;20.60;78.70;;;;;;5012614;28;20449;-71
2023/10/19 11:01:13;;;;;;;9.57;3.90;;;20.60;78.70;;;;;;5012800;28;20452;-70
2023/10/19 11:03:40;;;;;;;10.90;3.70;;;20.70;78.80;;;;;;5012681;28;20536;-70
2023/10/19 11:06:09;;;;;;;13.90;3.90;;;20.50;78.70;;;;;;5012939;28;20540;-70
2023/10/19 11:08:36;;;;;;;11.50;3.87;;;20.30;80.00;;;;;;5012813;28;20480;-71
2023/10/19 11:11:05;;;;;;;17.47;10.80;;;20.00;81.20;;;;;;5013259;28;20449;-71
2023/10/19 11:13:34;;;;;;;11.83;4.40;;;20.00;86.10;;;;;;5013222;28;20449;-71
2023/10/19 11:16:05;;;;;;;8.50;3.60;;;20.00;85.80;;;;;;5012966;28;20481;-71
2023/10/19 11:18:35;;;;;;;10.83;4.70;;;20.00;85.60;;;;;;5012458;28;20527;-71
2023/10/19 11:21:07;;;;;;;11.30;3.70;;;20.10;86.20;;;;;;5012297;28;20448;-71
2023/10/19 11:23:39;;;;;;;11.60;3.57;;;20.00;81.80;;;;;;5013798;28;20437;-71
2023/10/19 11:26:06;;;;;;;7.60;3.17;;;20.10;82.40;;;;;;5013802;28;20822;-71
2023/10/19 11:28:34;;;;;;;7.43;2.77;;;20.10;85.60;;;;;;5013864;28;20459;-71
2023/10/19 11:31:15;;;;;;;13.63;4.70;;;19.90;83.20;;;;;;5013665;28;20453;-71
2023/10/19 11:33:44;;;;;;;8.43;3.10;;;20.00;85.90;;;;;;5013257;28;20515;-71
2023/10/19 11:36:12;;;;;;;11.23;3.20;;;19.80;82.00;;;;;;5012425;28;20491;-71
2023/10/19 11:38:42;;;;;;;13.70;4.40;;;19.70;85.80;;;;;;5012017;28;20460;-71
2023/10/19 11:41:09;;;;;;;6.80;3.27;;;19.60;85.70;;;;;;5011449;28;20508;-71
2023/10/19 11:43:36;;;;;;;12.90;3.50;;;19.50;85.60;;;;;;5011228;28;20448;-71
2023/10/19 11:46:05;;;;;;;9.60;3.63;;;19.50;85.60;;;;;;5015312;28;20460;-71
2023/10/19 11:48:33;;;;;;;10.20;4.47;;;19.50;85.60;;;;;;5016270;28;20460;-71
2023/10/19 11:51:00;;;;;;;8.90;3.40;;;19.50;85.60;;;;;;5016331;28;20471;-71
2023/10/19 11:53:32;;;;;;;15.57;3.93;;;19.60;85.70;;;;;;5016366;28;20457;-71
2023/10/19 11:56:01;;;;;;;9.70;4.60;;;19.80;85.80;;;;;;5015981;28;20449;-71
2023/10/19 11:58:28;;;;;;;11.70;4.70;;;19.90;86.00;;;;;;5015663;28;20528;-71
2023/10/19 12:00:55;;;;;;;9.97;3.60;;;19.90;85.90;;;;;;5015908;28;20499;-71
2023/10/19 12:03:22;;;;;;;11.77;3.40;;;19.80;85.90;;;;;;5016228;28;20445;-71
2023/10/19 12:05:49;;;;;;;7.10;3.00;;;19.70;85.80;;;;;;5015967;28;20449;-71
2023/10/19 12:08:17;;;;;;;9.03;3.37;;;19.60;85.70;;;;;;5016440;28;20460;-71
2023/10/19 12:10:44;;;;;;;7.90;3.10;;;19.60;85.70;;;;;;5016026;28;20476;-71
2023/10/19 12:13:12;;;;;;;8.97;3.17;;;19.60;85.70;;;;;;5015751;28;20463;-71
2023/10/19 12:15:39;;;;;;;9.10;3.80;;;19.60;85.70;;;;;;5015709;28;20491;-71
2023/10/19 12:18:08;;;;;;;11.00;3.60;;;19.60;85.70;;;;;;5015692;28;20457;-71
2023/10/19 12:20:35;;;;;;;11.03;3.70;;;19.50;85.60;;;;;;5016024;28;20453;-71